sensor_id;sensor_type;location;lat;lon;timestamp;P1;durP1;ratioP1;P2;durP2;ratioP2
17253;SDS011;32542;52.832;13.816;2022-08-21T00:01:52;6.10;;;4.00;;
17253;SDS011;32542;52.832;13.816;2022-08-21T00:04:55;5.55;;;4.13;;
17253;SDS011;32542;52.832;13.816;2022-08-21T00:07:58;5.97;;;4.03;;
17253;SDS011;32542;52.832;13.816;2022-08-21T00:11:01;6.32;;;4.53;;
17253;SDS011;32542;52.832;13.816;2022-08-21T00:14:07;6.45;;;4.75;;
17253;SDS011;32542;52.832;13.816;2022-08-21T00:17:11;5.38;;;4.50;;
17253;SDS011;32542;52.832;13.816;2022-08-21T00:20:15;7.90;;;4.55;;
17253;SDS011;32542;52.832;13.816;2022-08-21T00:23:19;6.10;;;4.78;;
17253;SDS011;32542;52.832;13.816;2022-08-21T00:26:22;5.82;;;4.38;;
17253;SDS011;32542;52.832;13.816;2022-08-21T00:29:26;5.72;;;4.60;;
17253;SDS011;32542;52.832;13.816;2022-08-21T00:32:29;5.38;;;4.30;;
17253;SDS011;32542;52.832;13.816;2022-08-21T00:35:35;4.88;;;4.38;;
17253;SDS011;32542;52.832;13.816;2022-08-21T00:38:39;6.00;;;4.85;;
17253;SDS011;32542;52.832;13.816;2022-08-21T00:41:42;4.88;;;4.38;;
17253;SDS011;32542;52.832;13.816;2022-08-21T00:44:48;6.38;;;4.63;;
17253;SDS011;32542;52.832;13.816;2022-08-21T00:47:52;9.45;;;4.57;;
17253;SDS011;32542;52.832;13.816;2022-08-21T00:50:57;5.72;;;4.32;;
17253;SDS011;32542;52.832;13.816;2022-08-21T00:54:04;6.40;;;4.00;;
17253;SDS011;32542;52.832;13.816;2022-08-21T00:57:20;5.70;;;4.22;;
17253;SDS011;32542;52.832;13.816;2022-08-21T01:00:30;4.70;;;3.75;;
17253;SDS011;32542;52.832;13.816;2022-08-21T01:03:35;6.65;;;4.30;;
17253;SDS011;32542;52.832;13.816;2022-08-21T01:06:44;5.07;;;4.03;;
17253;SDS011;32542;52.832;13.816;2022-08-21T01:09:47;9.02;;;3.40;;
17253;SDS011;32542;52.832;13.816;2022-08-21T01:12:51;4.32;;;3.38;;
17253;SDS011;32542;52.832;13.816;2022-08-21T01:15:58;5.03;;;3.53;;
17253;SDS011;32542;52.832;13.816;2022-08-21T01:19:03;6.10;;;4.10;;
17253;SDS011;32542;52.832;13.816;2022-08-21T01:22:08;4.70;;;3.40;;
17253;SDS011;32542;52.832;13.816;2022-08-21T01:25:12;5.25;;;3.03;;
17253;SDS011;32542;52.832;13.816;2022-08-21T01:28:17;5.47;;;3.28;;
17253;SDS011;32542;52.832;13.816;2022-08-21T01:31:21;8.48;;;3.60;;
17253;SDS011;32542;52.832;13.816;2022-08-21T01:34:26;6.82;;;3.95;;
17253;SDS011;32542;52.832;13.816;2022-08-21T01:37:31;6.28;;;3.53;;
17253;SDS011;32542;52.832;13.816;2022-08-21T01:40:34;4.50;;;3.15;;
17253;SDS011;32542;52.832;13.816;2022-08-21T01:43:37;3.50;;;3.03;;
17253;SDS011;32542;52.832;13.816;2022-08-21T01:46:40;5.28;;;2.90;;
17253;SDS011;32542;52.832;13.816;2022-08-21T01:49:43;6.47;;;3.20;;
17253;SDS011;32542;52.832;13.816;2022-08-21T01:52:49;5.05;;;3.10;;
17253;SDS011;32542;52.832;13.816;2022-08-21T01:55:52;3.75;;;2.70;;
17253;SDS011;32542;52.832;13.816;2022-08-21T01:58:55;5.95;;;3.13;;
17253;SDS011;32542;52.832;13.816;2022-08-21T02:01:58;4.65;;;2.50;;
17253;SDS011;32542;52.832;13.816;2022-08-21T02:05:02;6.32;;;2.90;;
17253;SDS011;32542;52.832;13.816;2022-08-21T02:08:07;4.78;;;2.58;;
17253;SDS011;32542;52.832;13.816;2022-08-21T02:11:10;3.20;;;2.63;;
17253;SDS011;32542;52.832;13.816;2022-08-21T02:14:13;4.80;;;2.35;;
17253;SDS011;32542;52.832;13.816;2022-08-21T02:17:39;5.30;;;2.88;;
17253;SDS011;32542;52.832;13.816;2022-08-21T02:20:45;3.22;;;2.17;;
17253;SDS011;32542;52.832;13.816;2022-08-21T02:23:57;4.47;;;2.70;;
17253;SDS011;32542;52.832;13.816;2022-08-21T02:27:00;3.70;;;2.47;;
17253;SDS011;32542;52.832;13.816;2022-08-21T02:30:03;3.35;;;2.45;;
17253;SDS011;32542;52.832;13.816;2022-08-21T02:33:07;6.88;;;2.85;;
17253;SDS011;32542;52.832;13.816;2022-08-21T02:36:12;6.75;;;2.75;;
17253;SDS011;32542;52.832;13.816;2022-08-21T02:39:17;3.17;;;2.50;;
17253;SDS011;32542;52.832;13.816;2022-08-21T02:42:27;3.70;;;2.33;;
17253;SDS011;32542;52.832;13.816;2022-08-21T02:45:32;2.88;;;2.40;;
17253;SDS011;32542;52.832;13.816;2022-08-21T02:48:35;6.60;;;3.00;;
17253;SDS011;32542;52.832;13.816;2022-08-21T02:51:39;5.03;;;2.22;;
17253;SDS011;32542;52.832;13.816;2022-08-21T02:54:44;4.30;;;2.60;;
17253;SDS011;32542;52.832;13.816;2022-08-21T02:57:47;3.28;;;2.15;;
17253;SDS011;32542;52.832;13.816;2022-08-21T03:00:50;2.85;;;2.20;;
17253;SDS011;32542;52.832;13.816;2022-08-21T03:03:53;4.75;;;2.40;;
17253;SDS011;32542;52.832;13.816;2022-08-21T03:06:57;4.15;;;2.30;;
17253;SDS011;32542;52.832;13.816;2022-08-21T03:10:01;4.30;;;2.10;;
17253;SDS011;32542;52.832;13.816;2022-08-21T03:13:05;4.90;;;2.30;;
17253;SDS011;32542;52.832;13.816;2022-08-21T03:16:09;3.13;;;2.15;;
17253;SDS011;32542;52.832;13.816;2022-08-21T03:19:12;3.50;;;2.17;;
17253;SDS011;32542;52.832;13.816;2022-08-21T03:22:15;6.90;;;2.40;;
17253;SDS011;32542;52.832;13.816;2022-08-21T03:25:20;5.43;;;2.65;;
17253;SDS011;32542;52.832;13.816;2022-08-21T03:28:41;5.57;;;2.30;;
17253;SDS011;32542;52.832;13.816;2022-08-21T03:31:44;3.15;;;2.38;;
17253;SDS011;32542;52.832;13.816;2022-08-21T03:34:47;3.72;;;2.17;;
17253;SDS011;32542;52.832;13.816;2022-08-21T03:37:50;4.20;;;2.22;;
17253;SDS011;32542;52.832;13.816;2022-08-21T03:40:55;4.18;;;2.38;;
17253;SDS011;32542;52.832;13.816;2022-08-21T03:43:58;5.00;;;2.03;;
17253;SDS011;32542;52.832;13.816;2022-08-21T03:47:01;4.68;;;2.15;;
17253;SDS011;32542;52.832;13.816;2022-08-21T03:50:05;3.85;;;1.90;;
17253;SDS011;32542;52.832;13.816;2022-08-21T03:53:10;3.90;;;1.95;;
17253;SDS011;32542;52.832;13.816;2022-08-21T03:56:19;5.22;;;2.35;;
17253;SDS011;32542;52.832;13.816;2022-08-21T03:59:22;7.28;;;2.03;;
17253;SDS011;32542;52.832;13.816;2022-08-21T04:02:27;3.10;;;1.75;;
17253;SDS011;32542;52.832;13.816;2022-08-21T04:05:30;4.18;;;2.00;;
17253;SDS011;32542;52.832;13.816;2022-08-21T04:08:34;4.72;;;2.00;;
17253;SDS011;32542;52.832;13.816;2022-08-21T04:11:38;3.25;;;1.75;;
17253;SDS011;32542;52.832;13.816;2022-08-21T04:14:42;3.67;;;1.88;;
17253;SDS011;32542;52.832;13.816;2022-08-21T04:17:45;4.70;;;1.90;;
17253;SDS011;32542;52.832;13.816;2022-08-21T04:20:48;3.42;;;1.65;;
17253;SDS011;32542;52.832;13.816;2022-08-21T04:23:54;4.32;;;1.80;;
17253;SDS011;32542;52.832;13.816;2022-08-21T04:26:58;3.20;;;1.73;;
17253;SDS011;32542;52.832;13.816;2022-08-21T04:30:02;6.55;;;1.95;;
17253;SDS011;32542;52.832;13.816;2022-08-21T04:33:06;3.22;;;1.90;;
17253;SDS011;32542;52.832;13.816;2022-08-21T04:36:09;3.13;;;1.80;;
17253;SDS011;32542;52.832;13.816;2022-08-21T04:39:13;4.97;;;2.03;;
17253;SDS011;32542;52.832;13.816;2022-08-21T04:42:17;4.07;;;1.83;;
17253;SDS011;32542;52.832;13.816;2022-08-21T04:45:22;3.28;;;1.80;;
17253;SDS011;32542;52.832;13.816;2022-08-21T04:48:27;4.03;;;1.90;;
17253;SDS011;32542;52.832;13.816;2022-08-21T04:51:31;3.78;;;1.80;;
17253;SDS011;32542;52.832;13.816;2022-08-21T04:54:35;3.75;;;2.03;;
17253;SDS011;32542;52.832;13.816;2022-08-21T04:57:40;3.03;;;1.65;;
17253;SDS011;32542;52.832;13.816;2022-08-21T05:00:50;6.35;;;2.40;;
17253;SDS011;32542;52.832;13.816;2022-08-21T05:03:56;3.55;;;2.20;;
17253;SDS011;32542;52.832;13.816;2022-08-21T05:07:02;4.68;;;2.22;;
17253;SDS011;32542;52.832;13.816;2022-08-21T05:10:08;5.47;;;1.80;;
17253;SDS011;32542;52.832;13.816;2022-08-21T05:13:15;5.47;;;2.08;;
17253;SDS011;32542;52.832;13.816;2022-08-21T05:16:19;5.25;;;1.58;;
17253;SDS011;32542;52.832;13.816;2022-08-21T05:19:38;4.43;;;2.00;;
17253;SDS011;32542;52.832;13.816;2022-08-21T05:22:41;6.90;;;1.80;;
17253;SDS011;32542;52.832;13.816;2022-08-21T05:25:44;7.13;;;1.85;;
17253;SDS011;32542;52.832;13.816;2022-08-21T05:28:50;3.63;;;1.90;;
17253;SDS011;32542;52.832;13.816;2022-08-21T05:31:53;8.48;;;2.42;;
17253;SDS011;32542;52.832;13.816;2022-08-21T05:34:57;5.45;;;1.90;;
17253;SDS011;32542;52.832;13.816;2022-08-21T05:38:00;5.15;;;1.90;;
17253;SDS011;32542;52.832;13.816;2022-08-21T05:41:03;4.95;;;2.10;;
17253;SDS011;32542;52.832;13.816;2022-08-21T05:44:08;5.07;;;1.70;;
17253;SDS011;32542;52.832;13.816;2022-08-21T05:47:11;5.57;;;1.83;;
17253;SDS011;32542;52.832;13.816;2022-08-21T05:50:14;4.15;;;1.90;;
17253;SDS011;32542;52.832;13.816;2022-08-21T05:53:18;7.18;;;2.05;;
17253;SDS011;32542;52.832;13.816;2022-08-21T05:56:23;6.78;;;2.10;;
17253;SDS011;32542;52.832;13.816;2022-08-21T05:59:27;5.20;;;2.40;;
17253;SDS011;32542;52.832;13.816;2022-08-21T06:02:30;2.45;;;1.52;;
17253;SDS011;32542;52.832;13.816;2022-08-21T06:05:33;4.30;;;1.80;;
17253;SDS011;32542;52.832;13.816;2022-08-21T06:08:38;4.85;;;1.77;;
17253;SDS011;32542;52.832;13.816;2022-08-21T06:11:41;4.43;;;1.50;;
17253;SDS011;32542;52.832;13.816;2022-08-21T06:14:45;5.63;;;1.70;;
17253;SDS011;32542;52.832;13.816;2022-08-21T06:17:48;2.53;;;1.55;;
17253;SDS011;32542;52.832;13.816;2022-08-21T06:20:51;5.07;;;1.80;;
17253;SDS011;32542;52.832;13.816;2022-08-21T06:23:54;2.75;;;1.45;;
17253;SDS011;32542;52.832;13.816;2022-08-21T06:26:58;5.35;;;1.88;;
17253;SDS011;32542;52.832;13.816;2022-08-21T06:30:10;5.30;;;1.60;;
17253;SDS011;32542;52.832;13.816;2022-08-21T06:33:13;6.65;;;1.63;;
17253;SDS011;32542;52.832;13.816;2022-08-21T06:36:18;2.20;;;1.30;;
17253;SDS011;32542;52.832;13.816;2022-08-21T06:39:22;3.72;;;1.40;;
17253;SDS011;32542;52.832;13.816;2022-08-21T06:42:31;3.35;;;1.50;;
17253;SDS011;32542;52.832;13.816;2022-08-21T06:45:36;4.18;;;1.38;;
17253;SDS011;32542;52.832;13.816;2022-08-21T06:48:40;3.83;;;1.73;;
17253;SDS011;32542;52.832;13.816;2022-08-21T06:51:43;5.60;;;1.80;;
17253;SDS011;32542;52.832;13.816;2022-08-21T06:54:46;2.75;;;1.48;;
17253;SDS011;32542;52.832;13.816;2022-08-21T06:57:49;4.93;;;1.50;;
17253;SDS011;32542;52.832;13.816;2022-08-21T07:00:54;6.95;;;1.55;;
17253;SDS011;32542;52.832;13.816;2022-08-21T07:04:01;3.95;;;1.40;;
17253;SDS011;32542;52.832;13.816;2022-08-21T07:07:05;4.55;;;1.60;;
17253;SDS011;32542;52.832;13.816;2022-08-21T07:10:08;4.90;;;1.55;;
17253;SDS011;32542;52.832;13.816;2022-08-21T07:13:22;7.20;;;1.58;;
17253;SDS011;32542;52.832;13.816;2022-08-21T07:16:28;5.60;;;1.50;;
17253;SDS011;32542;52.832;13.816;2022-08-21T07:19:31;6.63;;;1.42;;
17253;SDS011;32542;52.832;13.816;2022-08-21T07:22:34;6.60;;;1.45;;
17253;SDS011;32542;52.832;13.816;2022-08-21T07:25:38;7.13;;;1.50;;
17253;SDS011;32542;52.832;13.816;2022-08-21T07:28:42;6.25;;;1.55;;
17253;SDS011;32542;52.832;13.816;2022-08-21T07:31:46;7.10;;;1.60;;
17253;SDS011;32542;52.832;13.816;2022-08-21T07:34:51;3.60;;;1.33;;
17253;SDS011;32542;52.832;13.816;2022-08-21T07:37:54;6.65;;;1.40;;
17253;SDS011;32542;52.832;13.816;2022-08-21T07:40:57;4.18;;;1.30;;
17253;SDS011;32542;52.832;13.816;2022-08-21T07:44:02;3.75;;;1.20;;
17253;SDS011;32542;52.832;13.816;2022-08-21T07:47:09;7.22;;;2.08;;
17253;SDS011;32542;52.832;13.816;2022-08-21T07:50:12;7.50;;;1.70;;
17253;SDS011;32542;52.832;13.816;2022-08-21T07:53:17;4.13;;;1.40;;
17253;SDS011;32542;52.832;13.816;2022-08-21T07:56:20;4.60;;;1.40;;
17253;SDS011;32542;52.832;13.816;2022-08-21T07:59:24;5.03;;;1.35;;
17253;SDS011;32542;52.832;13.816;2022-08-21T08:02:29;10.00;;;1.60;;
17253;SDS011;32542;52.832;13.816;2022-08-21T08:05:32;5.80;;;1.42;;
17253;SDS011;32542;52.832;13.816;2022-08-21T08:08:38;5.90;;;1.50;;
17253;SDS011;32542;52.832;13.816;2022-08-21T08:11:43;3.13;;;1.10;;
17253;SDS011;32542;52.832;13.816;2022-08-21T08:14:46;7.75;;;1.38;;
17253;SDS011;32542;52.832;13.816;2022-08-21T08:17:50;6.97;;;1.60;;
17253;SDS011;32542;52.832;13.816;2022-08-21T08:20:54;3.55;;;1.30;;
17253;SDS011;32542;52.832;13.816;2022-08-21T08:23:57;5.47;;;1.25;;
17253;SDS011;32542;52.832;13.816;2022-08-21T08:27:19;6.20;;;1.60;;
17253;SDS011;32542;52.832;13.816;2022-08-21T08:30:23;5.82;;;1.52;;
17253;SDS011;32542;52.832;13.816;2022-08-21T08:33:32;4.75;;;1.20;;
17253;SDS011;32542;52.832;13.816;2022-08-21T08:36:36;3.60;;;1.40;;
17253;SDS011;32542;52.832;13.816;2022-08-21T08:39:41;3.20;;;1.27;;
17253;SDS011;32542;52.832;13.816;2022-08-21T08:42:44;5.35;;;1.55;;
17253;SDS011;32542;52.832;13.816;2022-08-21T08:45:51;1.80;;;1.10;;
17253;SDS011;32542;52.832;13.816;2022-08-21T08:49:00;4.15;;;1.20;;
17253;SDS011;32542;52.832;13.816;2022-08-21T08:52:10;5.45;;;1.60;;
17253;SDS011;32542;52.832;13.816;2022-08-21T08:55:21;7.05;;;1.23;;
17253;SDS011;32542;52.832;13.816;2022-08-21T08:58:29;6.45;;;1.70;;
17253;SDS011;32542;52.832;13.816;2022-08-21T09:01:34;5.20;;;1.60;;
17253;SDS011;32542;52.832;13.816;2022-08-21T09:04:41;5.75;;;1.52;;
17253;SDS011;32542;52.832;13.816;2022-08-21T09:07:47;3.80;;;1.38;;
17253;SDS011;32542;52.832;13.816;2022-08-21T09:11:01;4.72;;;1.60;;
17253;SDS011;32542;52.832;13.816;2022-08-21T09:14:08;5.60;;;1.55;;
17253;SDS011;32542;52.832;13.816;2022-08-21T09:17:33;3.70;;;1.27;;
17253;SDS011;32542;52.832;13.816;2022-08-21T09:20:58;4.78;;;1.30;;
17253;SDS011;32542;52.832;13.816;2022-08-21T09:24:18;8.10;;;1.80;;
17253;SDS011;32542;52.832;13.816;2022-08-21T09:27:30;5.35;;;1.27;;
17253;SDS011;32542;52.832;13.816;2022-08-21T09:30:34;5.60;;;1.15;;
17253;SDS011;32542;52.832;13.816;2022-08-21T09:33:37;2.58;;;1.30;;
17253;SDS011;32542;52.832;13.816;2022-08-21T09:36:42;10.70;;;1.45;;
17253;SDS011;32542;52.832;13.816;2022-08-21T09:39:48;10.50;;;2.22;;
17253;SDS011;32542;52.832;13.816;2022-08-21T09:42:55;5.70;;;2.00;;
17253;SDS011;32542;52.832;13.816;2022-08-21T09:46:07;6.43;;;1.58;;
17253;SDS011;32542;52.832;13.816;2022-08-21T09:49:12;4.43;;;1.40;;
17253;SDS011;32542;52.832;13.816;2022-08-21T09:52:31;6.18;;;1.60;;
17253;SDS011;32542;52.832;13.816;2022-08-21T09:55:38;2.80;;;1.10;;
17253;SDS011;32542;52.832;13.816;2022-08-21T09:59:15;2.60;;;1.00;;
17253;SDS011;32542;52.832;13.816;2022-08-21T10:02:23;5.13;;;1.35;;
17253;SDS011;32542;52.832;13.816;2022-08-21T10:05:28;2.85;;;1.40;;
17253;SDS011;32542;52.832;13.816;2022-08-21T10:08:33;5.30;;;1.40;;
17253;SDS011;32542;52.832;13.816;2022-08-21T10:11:37;5.55;;;1.70;;
17253;SDS011;32542;52.832;13.816;2022-08-21T10:14:44;3.28;;;1.17;;
17253;SDS011;32542;52.832;13.816;2022-08-21T10:17:57;4.90;;;1.50;;
17253;SDS011;32542;52.832;13.816;2022-08-21T10:21:14;3.28;;;1.40;;
17253;SDS011;32542;52.832;13.816;2022-08-21T10:24:25;3.40;;;1.17;;
17253;SDS011;32542;52.832;13.816;2022-08-21T10:27:34;4.45;;;1.30;;
17253;SDS011;32542;52.832;13.816;2022-08-21T10:30:47;7.10;;;1.50;;
17253;SDS011;32542;52.832;13.816;2022-08-21T10:34:00;4.20;;;1.40;;
17253;SDS011;32542;52.832;13.816;2022-08-21T10:37:14;6.05;;;1.40;;
17253;SDS011;32542;52.832;13.816;2022-08-21T10:40:27;4.35;;;1.25;;
17253;SDS011;32542;52.832;13.816;2022-08-21T10:43:35;4.70;;;1.42;;
17253;SDS011;32542;52.832;13.816;2022-08-21T10:46:46;18.35;;;2.10;;
17253;SDS011;32542;52.832;13.816;2022-08-21T10:49:55;9.00;;;1.77;;
17253;SDS011;32542;52.832;13.816;2022-08-21T10:53:08;11.10;;;1.67;;
17253;SDS011;32542;52.832;13.816;2022-08-21T10:56:24;6.28;;;1.73;;
17253;SDS011;32542;52.832;13.816;2022-08-21T10:59:30;7.88;;;1.48;;
17253;SDS011;32542;52.832;13.816;2022-08-21T11:02:40;9.05;;;2.00;;
17253;SDS011;32542;52.832;13.816;2022-08-21T11:05:52;4.28;;;1.60;;
17253;SDS011;32542;52.832;13.816;2022-08-21T11:08:58;3.78;;;1.38;;
17253;SDS011;32542;52.832;13.816;2022-08-21T11:12:12;6.43;;;1.60;;
17253;SDS011;32542;52.832;13.816;2022-08-21T11:15:31;6.93;;;1.70;;
17253;SDS011;32542;52.832;13.816;2022-08-21T11:18:40;32.60;;;3.53;;
17253;SDS011;32542;52.832;13.816;2022-08-21T11:21:47;6.20;;;1.83;;
17253;SDS011;32542;52.832;13.816;2022-08-21T11:24:56;8.77;;;1.70;;
17253;SDS011;32542;52.832;13.816;2022-08-21T11:28:05;4.00;;;1.55;;
17253;SDS011;32542;52.832;13.816;2022-08-21T11:31:18;8.77;;;1.38;;
17253;SDS011;32542;52.832;13.816;2022-08-21T11:34:38;6.18;;;1.48;;
17253;SDS011;32542;52.832;13.816;2022-08-21T11:37:53;5.20;;;1.30;;
17253;SDS011;32542;52.832;13.816;2022-08-21T11:41:11;5.22;;;1.30;;
17253;SDS011;32542;52.832;13.816;2022-08-21T11:44:27;5.20;;;1.58;;
17253;SDS011;32542;52.832;13.816;2022-08-21T11:47:45;5.43;;;1.60;;
17253;SDS011;32542;52.832;13.816;2022-08-21T11:50:57;5.93;;;1.33;;
17253;SDS011;32542;52.832;13.816;2022-08-21T11:54:03;5.80;;;1.60;;
17253;SDS011;32542;52.832;13.816;2022-08-21T11:57:17;6.70;;;1.42;;
17253;SDS011;32542;52.832;13.816;2022-08-21T12:00:28;3.70;;;1.33;;
17253;SDS011;32542;52.832;13.816;2022-08-21T12:03:36;4.60;;;1.55;;
17253;SDS011;32542;52.832;13.816;2022-08-21T12:06:43;3.33;;;1.27;;
17253;SDS011;32542;52.832;13.816;2022-08-21T12:09:56;2.40;;;1.35;;
17253;SDS011;32542;52.832;13.816;2022-08-21T12:13:05;2.72;;;1.20;;
17253;SDS011;32542;52.832;13.816;2022-08-21T12:16:12;2.50;;;1.50;;
17253;SDS011;32542;52.832;13.816;2022-08-21T12:19:29;3.38;;;1.58;;
17253;SDS011;32542;52.832;13.816;2022-08-21T12:22:37;3.95;;;1.38;;
17253;SDS011;32542;52.832;13.816;2022-08-21T12:25:44;6.63;;;1.42;;
17253;SDS011;32542;52.832;13.816;2022-08-21T12:28:49;4.10;;;1.40;;
17253;SDS011;32542;52.832;13.816;2022-08-21T12:31:55;3.83;;;1.38;;
17253;SDS011;32542;52.832;13.816;2022-08-21T12:35:01;3.67;;;1.48;;
17253;SDS011;32542;52.832;13.816;2022-08-21T12:38:17;2.83;;;1.17;;
17253;SDS011;32542;52.832;13.816;2022-08-21T12:41:24;4.43;;;1.55;;
17253;SDS011;32542;52.832;13.816;2022-08-21T12:44:33;4.68;;;1.42;;
17253;SDS011;32542;52.832;13.816;2022-08-21T12:47:45;4.88;;;1.27;;
17253;SDS011;32542;52.832;13.816;2022-08-21T12:50:52;2.22;;;1.20;;
17253;SDS011;32542;52.832;13.816;2022-08-21T12:53:58;3.10;;;1.30;;
17253;SDS011;32542;52.832;13.816;2022-08-21T12:57:02;5.53;;;1.92;;
17253;SDS011;32542;52.832;13.816;2022-08-21T13:00:08;3.55;;;1.13;;
17253;SDS011;32542;52.832;13.816;2022-08-21T13:03:15;5.50;;;1.65;;
17253;SDS011;32542;52.832;13.816;2022-08-21T13:06:20;4.78;;;1.20;;
17253;SDS011;32542;52.832;13.816;2022-08-21T13:09:29;3.47;;;1.50;;
17253;SDS011;32542;52.832;13.816;2022-08-21T13:12:33;4.25;;;1.40;;
17253;SDS011;32542;52.832;13.816;2022-08-21T13:15:38;2.42;;;1.50;;
17253;SDS011;32542;52.832;13.816;2022-08-21T13:18:53;5.88;;;1.40;;
17253;SDS011;32542;52.832;13.816;2022-08-21T13:21:59;4.18;;;1.40;;
17253;SDS011;32542;52.832;13.816;2022-08-21T13:25:26;4.10;;;1.27;;
17253;SDS011;32542;52.832;13.816;2022-08-21T13:28:34;4.45;;;1.40;;
17253;SDS011;32542;52.832;13.816;2022-08-21T13:31:39;3.63;;;1.40;;
17253;SDS011;32542;52.832;13.816;2022-08-21T13:34:45;4.53;;;1.42;;
17253;SDS011;32542;52.832;13.816;2022-08-21T13:37:54;3.92;;;1.50;;
17253;SDS011;32542;52.832;13.816;2022-08-21T13:40:59;3.17;;;1.20;;
17253;SDS011;32542;52.832;13.816;2022-08-21T13:44:13;4.70;;;1.60;;
17253;SDS011;32542;52.832;13.816;2022-08-21T13:47:21;4.28;;;1.73;;
17253;SDS011;32542;52.832;13.816;2022-08-21T13:50:25;5.72;;;1.40;;
17253;SDS011;32542;52.832;13.816;2022-08-21T13:53:30;3.50;;;1.50;;
17253;SDS011;32542;52.832;13.816;2022-08-21T13:56:41;3.58;;;1.50;;
17253;SDS011;32542;52.832;13.816;2022-08-21T13:59:45;4.65;;;1.52;;
17253;SDS011;32542;52.832;13.816;2022-08-21T14:02:50;3.85;;;1.48;;
17253;SDS011;32542;52.832;13.816;2022-08-21T14:05:57;5.43;;;1.48;;
17253;SDS011;32542;52.832;13.816;2022-08-21T14:09:01;3.17;;;1.40;;
17253;SDS011;32542;52.832;13.816;2022-08-21T14:12:12;8.15;;;1.65;;
17253;SDS011;32542;52.832;13.816;2022-08-21T14:15:24;3.85;;;1.55;;
17253;SDS011;32542;52.832;13.816;2022-08-21T14:18:29;4.25;;;1.30;;
17253;SDS011;32542;52.832;13.816;2022-08-21T14:21:35;4.55;;;1.50;;
17253;SDS011;32542;52.832;13.816;2022-08-21T14:24:40;3.80;;;1.48;;
17253;SDS011;32542;52.832;13.816;2022-08-21T14:27:44;2.65;;;1.10;;
17253;SDS011;32542;52.832;13.816;2022-08-21T14:30:52;5.28;;;1.30;;
17253;SDS011;32542;52.832;13.816;2022-08-21T14:33:56;3.75;;;1.40;;
17253;SDS011;32542;52.832;13.816;2022-08-21T14:37:01;2.05;;;1.20;;
17253;SDS011;32542;52.832;13.816;2022-08-21T14:40:05;2.17;;;1.27;;
17253;SDS011;32542;52.832;13.816;2022-08-21T14:43:08;2.70;;;1.23;;
17253;SDS011;32542;52.832;13.816;2022-08-21T14:46:12;2.83;;;1.20;;
17253;SDS011;32542;52.832;13.816;2022-08-21T14:49:27;3.25;;;1.17;;
17253;SDS011;32542;52.832;13.816;2022-08-21T14:52:32;2.42;;;1.05;;
17253;SDS011;32542;52.832;13.816;2022-08-21T14:55:36;3.38;;;1.13;;
17253;SDS011;32542;52.832;13.816;2022-08-21T14:58:53;2.85;;;1.10;;
17253;SDS011;32542;52.832;13.816;2022-08-21T15:02:01;2.63;;;1.10;;
17253;SDS011;32542;52.832;13.816;2022-08-21T15:05:06;2.45;;;1.08;;
17253;SDS011;32542;52.832;13.816;2022-08-21T15:08:11;3.03;;;1.10;;
17253;SDS011;32542;52.832;13.816;2022-08-21T15:11:16;2.00;;;1.10;;
17253;SDS011;32542;52.832;13.816;2022-08-21T15:14:40;4.32;;;1.10;;
17253;SDS011;32542;52.832;13.816;2022-08-21T15:17:43;1.88;;;0.95;;
17253;SDS011;32542;52.832;13.816;2022-08-21T15:20:49;3.28;;;1.23;;
17253;SDS011;32542;52.832;13.816;2022-08-21T15:23:53;4.15;;;0.90;;
17253;SDS011;32542;52.832;13.816;2022-08-21T15:26:58;2.47;;;0.98;;
17253;SDS011;32542;52.832;13.816;2022-08-21T15:30:02;2.00;;;1.10;;
17253;SDS011;32542;52.832;13.816;2022-08-21T15:33:07;2.65;;;1.05;;
17253;SDS011;32542;52.832;13.816;2022-08-21T15:36:12;2.60;;;1.05;;
17253;SDS011;32542;52.832;13.816;2022-08-21T15:39:16;2.75;;;0.90;;
17253;SDS011;32542;52.832;13.816;2022-08-21T15:42:25;2.90;;;1.20;;
17253;SDS011;32542;52.832;13.816;2022-08-21T15:45:29;3.90;;;1.05;;
17253;SDS011;32542;52.832;13.816;2022-08-21T15:48:33;1.63;;;1.00;;
17253;SDS011;32542;52.832;13.816;2022-08-21T15:51:36;2.70;;;1.00;;
17253;SDS011;32542;52.832;13.816;2022-08-21T15:54:45;2.33;;;1.00;;
17253;SDS011;32542;52.832;13.816;2022-08-21T15:57:49;2.47;;;1.13;;
17253;SDS011;32542;52.832;13.816;2022-08-21T16:00:59;2.42;;;1.10;;
17253;SDS011;32542;52.832;13.816;2022-08-21T16:04:03;2.30;;;1.15;;
17253;SDS011;32542;52.832;13.816;2022-08-21T16:07:07;2.17;;;1.20;;
17253;SDS011;32542;52.832;13.816;2022-08-21T16:10:12;2.08;;;1.15;;
17253;SDS011;32542;52.832;13.816;2022-08-21T16:13:16;2.17;;;1.10;;
17253;SDS011;32542;52.832;13.816;2022-08-21T16:16:23;1.90;;;1.10;;
17253;SDS011;32542;52.832;13.816;2022-08-21T16:19:27;3.53;;;1.17;;
17253;SDS011;32542;52.832;13.816;2022-08-21T16:22:31;4.00;;;1.35;;
17253;SDS011;32542;52.832;13.816;2022-08-21T16:25:46;1.63;;;1.02;;
17253;SDS011;32542;52.832;13.816;2022-08-21T16:28:50;1.13;;;0.90;;
17253;SDS011;32542;52.832;13.816;2022-08-21T16:31:57;2.55;;;1.05;;
17253;SDS011;32542;52.832;13.816;2022-08-21T16:35:01;2.55;;;1.23;;
17253;SDS011;32542;52.832;13.816;2022-08-21T16:38:05;3.00;;;1.17;;
17253;SDS011;32542;52.832;13.816;2022-08-21T16:41:10;2.20;;;1.20;;
17253;SDS011;32542;52.832;13.816;2022-08-21T16:44:15;4.15;;;1.30;;
17253;SDS011;32542;52.832;13.816;2022-08-21T16:47:21;4.45;;;1.40;;
17253;SDS011;32542;52.832;13.816;2022-08-21T16:50:27;1.83;;;1.17;;
17253;SDS011;32542;52.832;13.816;2022-08-21T16:53:30;1.73;;;1.10;;
17253;SDS011;32542;52.832;13.816;2022-08-21T16:56:35;3.33;;;1.30;;
17253;SDS011;32542;52.832;13.816;2022-08-21T16:59:41;1.75;;;1.23;;
17253;SDS011;32542;52.832;13.816;2022-08-21T17:02:45;2.47;;;1.10;;
17253;SDS011;32542;52.832;13.816;2022-08-21T17:05:51;3.05;;;1.40;;
17253;SDS011;32542;52.832;13.816;2022-08-21T17:08:54;3.45;;;1.20;;
17253;SDS011;32542;52.832;13.816;2022-08-21T17:11:58;3.45;;;1.55;;
17253;SDS011;32542;52.832;13.816;2022-08-21T17:15:03;1.52;;;1.10;;
17253;SDS011;32542;52.832;13.816;2022-08-21T17:18:09;2.15;;;1.40;;
17253;SDS011;32542;52.832;13.816;2022-08-21T17:21:14;2.85;;;1.30;;
17253;SDS011;32542;52.832;13.816;2022-08-21T17:24:20;1.70;;;1.20;;
17253;SDS011;32542;52.832;13.816;2022-08-21T17:27:24;1.15;;;0.90;;
17253;SDS011;32542;52.832;13.816;2022-08-21T17:30:29;2.25;;;1.17;;
17253;SDS011;32542;52.832;13.816;2022-08-21T17:33:34;3.38;;;1.20;;
17253;SDS011;32542;52.832;13.816;2022-08-21T17:36:43;3.08;;;1.08;;
17253;SDS011;32542;52.832;13.816;2022-08-21T17:39:46;2.95;;;1.40;;
17253;SDS011;32542;52.832;13.816;2022-08-21T17:42:50;2.95;;;1.63;;
17253;SDS011;32542;52.832;13.816;2022-08-21T17:45:54;6.57;;;1.65;;
17253;SDS011;32542;52.832;13.816;2022-08-21T17:48:57;3.08;;;1.48;;
17253;SDS011;32542;52.832;13.816;2022-08-21T17:52:02;3.53;;;1.50;;
17253;SDS011;32542;52.832;13.816;2022-08-21T17:55:06;5.00;;;1.63;;
17253;SDS011;32542;52.832;13.816;2022-08-21T17:58:11;2.40;;;1.55;;
17253;SDS011;32542;52.832;13.816;2022-08-21T18:01:16;2.40;;;1.40;;
17253;SDS011;32542;52.832;13.816;2022-08-21T18:04:19;4.57;;;1.50;;
17253;SDS011;32542;52.832;13.816;2022-08-21T18:07:22;5.85;;;1.95;;
17253;SDS011;32542;52.832;13.816;2022-08-21T18:10:33;5.75;;;1.60;;
17253;SDS011;32542;52.832;13.816;2022-08-21T18:13:38;2.03;;;1.40;;
17253;SDS011;32542;52.832;13.816;2022-08-21T18:16:43;3.17;;;1.70;;
17253;SDS011;32542;52.832;13.816;2022-08-21T18:19:47;8.73;;;1.92;;
17253;SDS011;32542;52.832;13.816;2022-08-21T18:22:50;8.52;;;1.83;;
17253;SDS011;32542;52.832;13.816;2022-08-21T18:25:54;4.05;;;1.50;;